sensor_id;sensor_type;location;lat;lon;timestamp;pressure;altitude;pressure_sealevel;temperature;humidity
58662;BME280;44432;49.786;22.760;2023-04-26T00:00:06;98418.09;;;6.33;85.09
58662;BME280;44432;49.786;22.760;2023-04-26T00:02:56;98422.84;;;6.35;85.08
58662;BME280;44432;49.786;22.760;2023-04-26T00:05:26;98421.50;;;6.35;85.14
58662;BME280;44432;49.786;22.760;2023-04-26T00:07:56;98420.21;;;6.36;85.13
58662;BME280;44432;49.786;22.760;2023-04-26T00:10:25;98420.94;;;6.36;84.95
58662;BME280;44432;49.786;22.760;2023-04-26T00:12:54;98419.73;;;6.37;84.88
58662;BME280;44432;49.786;22.760;2023-04-26T00:15:23;98415.90;;;6.37;85.17
58662;BME280;44432;49.786;22.760;2023-04-26T00:17:52;98421.65;;;6.39;85.40
58662;BME280;44432;49.786;22.760;2023-04-26T00:20:21;98420.96;;;6.40;85.16
58662;BME280;44432;49.786;22.760;2023-04-26T00:22:51;98423.88;;;6.41;85.31
58662;BME280;44432;49.786;22.760;2023-04-26T00:25:20;98424.15;;;6.40;85.08
58662;BME280;44432;49.786;22.760;2023-04-26T00:27:49;98425.13;;;6.40;85.19
58662;BME280;44432;49.786;22.760;2023-04-26T00:30:20;98422.87;;;6.38;85.03
58662;BME280;44432;49.786;22.760;2023-04-26T00:32:49;98425.38;;;6.38;84.96
58662;BME280;44432;49.786;22.760;2023-04-26T00:35:18;98424.73;;;6.39;84.98
58662;BME280;44432;49.786;22.760;2023-04-26T00:37:47;98421.98;;;6.38;85.28
58662;BME280;44432;49.786;22.760;2023-04-26T00:40:16;98423.46;;;6.39;85.08
58662;BME280;44432;49.786;22.760;2023-04-26T00:42:47;98426.54;;;6.39;85.20
58662;BME280;44432;49.786;22.760;2023-04-26T00:45:16;98429.84;;;6.39;85.17
58662;BME280;44432;49.786;22.760;2023-04-26T00:47:45;98427.66;;;6.40;84.99
58662;BME280;44432;49.786;22.760;2023-04-26T00:50:14;98429.64;;;6.41;85.22
58662;BME280;44432;49.786;22.760;2023-04-26T00:52:43;98432.34;;;6.42;85.34
58662;BME280;44432;49.786;22.760;2023-04-26T00:55:13;98427.13;;;6.41;85.24
58662;BME280;44432;49.786;22.760;2023-04-26T00:57:43;98423.42;;;6.43;85.46
58662;BME280;44432;49.786;22.760;2023-04-26T01:00:13;98420.63;;;6.44;85.16
58662;BME280;44432;49.786;22.760;2023-04-26T01:02:43;98420.60;;;6.45;85.28
58662;BME280;44432;49.786;22.760;2023-04-26T01:05:12;98417.29;;;6.44;85.34
58662;BME280;44432;49.786;22.760;2023-04-26T01:07:41;98422.36;;;6.44;85.34
58662;BME280;44432;49.786;22.760;2023-04-26T01:10:11;98424.51;;;6.44;85.25
58662;BME280;44432;49.786;22.760;2023-04-26T01:12:40;98421.73;;;6.44;85.14
58662;BME280;44432;49.786;22.760;2023-04-26T01:15:10;98418.38;;;6.44;85.13
58662;BME280;44432;49.786;22.760;2023-04-26T01:17:39;98424.86;;;6.45;85.06
58662;BME280;44432;49.786;22.760;2023-04-26T01:20:08;98424.14;;;6.45;85.38
58662;BME280;44432;49.786;22.760;2023-04-26T01:22:38;98419.22;;;6.46;84.98
58662;BME280;44432;49.786;22.760;2023-04-26T01:25:08;98424.02;;;6.46;85.34
58662;BME280;44432;49.786;22.760;2023-04-26T01:27:39;98425.06;;;6.46;85.29
58662;BME280;44432;49.786;22.760;2023-04-26T01:30:09;98426.68;;;6.46;85.19
58662;BME280;44432;49.786;22.760;2023-04-26T01:32:39;98423.98;;;6.45;85.06
58662;BME280;44432;49.786;22.760;2023-04-26T01:35:08;98428.86;;;6.46;85.07
58662;BME280;44432;49.786;22.760;2023-04-26T01:37:37;98424.95;;;6.45;85.19
58662;BME280;44432;49.786;22.760;2023-04-26T01:40:08;98429.45;;;6.46;85.29
58662;BME280;44432;49.786;22.760;2023-04-26T01:42:38;98420.73;;;6.47;85.27
58662;BME280;44432;49.786;22.760;2023-04-26T01:45:07;98428.33;;;6.48;85.36
58662;BME280;44432;49.786;22.760;2023-04-26T01:47:36;98421.38;;;6.49;85.05
58662;BME280;44432;49.786;22.760;2023-04-26T01:50:07;98421.02;;;6.50;84.95
58662;BME280;44432;49.786;22.760;2023-04-26T01:52:36;98415.45;;;6.51;85.56
58662;BME280;44432;49.786;22.760;2023-04-26T01:55:06;98423.87;;;6.52;85.23
58662;BME280;44432;49.786;22.760;2023-04-26T01:57:36;98421.81;;;6.53;85.14
58662;BME280;44432;49.786;22.760;2023-04-26T02:00:07;98425.85;;;6.55;85.00
58662;BME280;44432;49.786;22.760;2023-04-26T02:02:36;98427.98;;;6.56;85.02
58662;BME280;44432;49.786;22.760;2023-04-26T02:05:06;98425.71;;;6.57;85.27
58662;BME280;44432;49.786;22.760;2023-04-26T02:07:36;98425.14;;;6.59;85.58
58662;BME280;44432;49.786;22.760;2023-04-26T02:10:06;98423.80;;;6.60;85.11
58662;BME280;44432;49.786;22.760;2023-04-26T02:12:35;98425.61;;;6.62;85.05
58662;BME280;44432;49.786;22.760;2023-04-26T02:15:06;98424.40;;;6.63;85.07
58662;BME280;44432;49.786;22.760;2023-04-26T02:17:36;98425.05;;;6.63;84.97
58662;BME280;44432;49.786;22.760;2023-04-26T02:20:06;98426.98;;;6.65;85.05
58662;BME280;44432;49.786;22.760;2023-04-26T02:22:37;98423.23;;;6.64;84.85
58662;BME280;44432;49.786;22.760;2023-04-26T02:25:06;98428.95;;;6.64;85.17
58662;BME280;44432;49.786;22.760;2023-04-26T02:27:36;98431.77;;;6.64;84.98
58662;BME280;44432;49.786;22.760;2023-04-26T02:30:06;98428.23;;;6.63;84.60
58662;BME280;44432;49.786;22.760;2023-04-26T02:32:35;98431.83;;;6.64;84.49
58662;BME280;44432;49.786;22.760;2023-04-26T02:35:04;98431.65;;;6.63;84.72
58662;BME280;44432;49.786;22.760;2023-04-26T02:37:34;98431.23;;;6.63;84.38
58662;BME280;44432;49.786;22.760;2023-04-26T02:40:05;98434.69;;;6.63;84.50
58662;BME280;44432;49.786;22.760;2023-04-26T02:42:34;98436.55;;;6.62;84.55
58662;BME280;44432;49.786;22.760;2023-04-26T02:45:04;98432.84;;;6.62;84.36
58662;BME280;44432;49.786;22.760;2023-04-26T02:47:34;98432.68;;;6.61;84.33
58662;BME280;44432;49.786;22.760;2023-04-26T02:50:04;98435.54;;;6.61;84.16
58662;BME280;44432;49.786;22.760;2023-04-26T02:52:34;98439.10;;;6.60;83.99
58662;BME280;44432;49.786;22.760;2023-04-26T02:55:03;98442.16;;;6.59;84.13
58662;BME280;44432;49.786;22.760;2023-04-26T02:57:33;98439.55;;;6.60;84.23
58662;BME280;44432;49.786;22.760;2023-04-26T03:00:02;98444.06;;;6.60;84.18
58662;BME280;44432;49.786;22.760;2023-04-26T03:02:32;98447.53;;;6.60;84.17
58662;BME280;44432;49.786;22.760;2023-04-26T03:05:01;98455.20;;;6.60;84.05
58662;BME280;44432;49.786;22.760;2023-04-26T03:07:30;98449.91;;;6.59;83.81
58662;BME280;44432;49.786;22.760;2023-04-26T03:09:59;98450.04;;;6.58;83.98
58662;BME280;44432;49.786;22.760;2023-04-26T03:12:29;98456.24;;;6.60;83.95
58662;BME280;44432;49.786;22.760;2023-04-26T03:14:58;98467.78;;;6.60;83.57
58662;BME280;44432;49.786;22.760;2023-04-26T03:17:29;98469.52;;;6.59;83.66
58662;BME280;44432;49.786;22.760;2023-04-26T03:19:58;98468.39;;;6.58;83.59
58662;BME280;44432;49.786;22.760;2023-04-26T03:22:27;98471.38;;;6.59;83.84
58662;BME280;44432;49.786;22.760;2023-04-26T03:24:56;98479.23;;;6.61;83.82
58662;BME280;44432;49.786;22.760;2023-04-26T03:27:25;98477.11;;;6.61;83.68
58662;BME280;44432;49.786;22.760;2023-04-26T03:29:54;98483.88;;;6.63;83.57
58662;BME280;44432;49.786;22.760;2023-04-26T03:32:24;98489.04;;;6.65;83.47
58662;BME280;44432;49.786;22.760;2023-04-26T03:34:53;98494.77;;;6.65;83.27
58662;BME280;44432;49.786;22.760;2023-04-26T03:37:22;98492.42;;;6.66;83.33
58662;BME280;44432;49.786;22.760;2023-04-26T03:39:51;98500.48;;;6.67;83.05
58662;BME280;44432;49.786;22.760;2023-04-26T03:42:20;98502.59;;;6.68;83.42
58662;BME280;44432;49.786;22.760;2023-04-26T03:44:49;98500.08;;;6.69;83.17
58662;BME280;44432;49.786;22.760;2023-04-26T03:47:18;98502.77;;;6.70;83.04
58662;BME280;44432;49.786;22.760;2023-04-26T03:49:47;98502.66;;;6.71;82.97
58662;BME280;44432;49.786;22.760;2023-04-26T03:52:16;98508.22;;;6.73;82.94
58662;BME280;44432;49.786;22.760;2023-04-26T03:54:46;98504.55;;;6.74;83.29
58662;BME280;44432;49.786;22.760;2023-04-26T03:57:15;98509.59;;;6.75;83.09
58662;BME280;44432;49.786;22.760;2023-04-26T03:59:44;98510.35;;;6.76;82.93
58662;BME280;44432;49.786;22.760;2023-04-26T04:02:13;98512.73;;;6.77;83.05
58662;BME280;44432;49.786;22.760;2023-04-26T04:04:42;98513.17;;;6.76;83.06
58662;BME280;44432;49.786;22.760;2023-04-26T04:07:11;98510.52;;;6.75;83.13
58662;BME280;44432;49.786;22.760;2023-04-26T04:09:40;98515.67;;;6.76;82.87
58662;BME280;44432;49.786;22.760;2023-04-26T04:12:09;98517.65;;;6.78;83.16
58662;BME280;44432;49.786;22.760;2023-04-26T04:14:38;98520.67;;;6.79;82.89
58662;BME280;44432;49.786;22.760;2023-04-26T04:17:07;98524.86;;;6.80;83.00
58662;BME280;44432;49.786;22.760;2023-04-26T04:19:37;98533.15;;;6.79;82.83
58662;BME280;44432;49.786;22.760;2023-04-26T04:22:06;98531.33;;;6.78;82.36
58662;BME280;44432;49.786;22.760;2023-04-26T04:24:35;98532.86;;;6.77;82.62
58662;BME280;44432;49.786;22.760;2023-04-26T04:27:04;98543.45;;;6.76;82.54
58662;BME280;44432;49.786;22.760;2023-04-26T04:29:33;98545.06;;;6.73;82.19
58662;BME280;44432;49.786;22.760;2023-04-26T04:32:03;98552.13;;;6.71;82.70
58662;BME280;44432;49.786;22.760;2023-04-26T04:34:34;98553.91;;;6.70;82.27
58662;BME280;44432;49.786;22.760;2023-04-26T04:37:03;98562.11;;;6.67;81.95
58662;BME280;44432;49.786;22.760;2023-04-26T04:39:32;98563.16;;;6.66;82.04
58662;BME280;44432;49.786;22.760;2023-04-26T04:42:01;98567.67;;;6.66;81.60
58662;BME280;44432;49.786;22.760;2023-04-26T04:44:30;98567.71;;;6.66;81.55
58662;BME280;44432;49.786;22.760;2023-04-26T04:47:00;98572.44;;;6.66;81.56
58662;BME280;44432;49.786;22.760;2023-04-26T04:49:29;98574.62;;;6.67;81.55
58662;BME280;44432;49.786;22.760;2023-04-26T04:51:58;98575.39;;;6.67;81.59
58662;BME280;44432;49.786;22.760;2023-04-26T04:54:27;98581.23;;;6.67;81.36
58662;BME280;44432;49.786;22.760;2023-04-26T04:56:56;98576.08;;;6.67;81.14
58662;BME280;44432;49.786;22.760;2023-04-26T04:59:25;98580.98;;;6.69;80.98
58662;BME280;44432;49.786;22.760;2023-04-26T05:01:54;98584.50;;;6.70;81.02
58662;BME280;44432;49.786;22.760;2023-04-26T05:04:23;98584.61;;;6.70;80.13
58662;BME280;44432;49.786;22.760;2023-04-26T05:06:52;98586.71;;;6.70;79.48
58662;BME280;44432;49.786;22.760;2023-04-26T05:09:21;98590.15;;;6.69;79.67
58662;BME280;44432;49.786;22.760;2023-04-26T05:11:50;98591.40;;;6.69;79.23
58662;BME280;44432;49.786;22.760;2023-04-26T05:14:19;98594.39;;;6.69;79.29
58662;BME280;44432;49.786;22.760;2023-04-26T05:16:48;98592.69;;;6.67;79.31
58662;BME280;44432;49.786;22.760;2023-04-26T05:19:17;98598.02;;;6.68;78.44
58662;BME280;44432;49.786;22.760;2023-04-26T05:21:47;98601.73;;;6.65;78.77
58662;BME280;44432;49.786;22.760;2023-04-26T05:24:16;98600.48;;;6.64;78.73
58662;BME280;44432;49.786;22.760;2023-04-26T05:26:45;98603.06;;;6.66;78.55
58662;BME280;44432;49.786;22.760;2023-04-26T05:29:14;98608.52;;;6.68;78.22
58662;BME280;44432;49.786;22.760;2023-04-26T05:31:43;98605.08;;;6.69;77.80
58662;BME280;44432;49.786;22.760;2023-04-26T05:34:12;98610.00;;;6.73;77.71
58662;BME280;44432;49.786;22.760;2023-04-26T05:36:41;98609.39;;;6.76;78.21
58662;BME280;44432;49.786;22.760;2023-04-26T05:39:10;98604.46;;;6.81;77.78
58662;BME280;44432;49.786;22.760;2023-04-26T05:41:40;98615.39;;;6.86;77.60
58662;BME280;44432;49.786;22.760;2023-04-26T05:44:09;98617.96;;;6.89;77.10
58662;BME280;44432;49.786;22.760;2023-04-26T05:46:38;98617.04;;;6.92;77.42
58662;BME280;44432;49.786;22.760;2023-04-26T05:49:07;98621.63;;;6.97;77.27
58662;BME280;44432;49.786;22.760;2023-04-26T05:51:36;98618.48;;;6.98;76.60
58662;BME280;44432;49.786;22.760;2023-04-26T05:54:05;98621.54;;;6.99;76.46
58662;BME280;44432;49.786;22.760;2023-04-26T05:56:34;98624.64;;;7.04;76.47
58662;BME280;44432;49.786;22.760;2023-04-26T05:59:03;98628.90;;;7.12;76.33
58662;BME280;44432;49.786;22.760;2023-04-26T06:01:32;98634.06;;;7.16;76.15
58662;BME280;44432;49.786;22.760;2023-04-26T06:04:01;98636.20;;;7.20;75.92
58662;BME280;44432;49.786;22.760;2023-04-26T06:06:30;98639.30;;;7.21;75.70
58662;BME280;44432;49.786;22.760;2023-04-26T06:08:59;98643.90;;;7.24;75.05
58662;BME280;44432;49.786;22.760;2023-04-26T06:11:28;98646.36;;;7.24;75.30
58662;BME280;44432;49.786;22.760;2023-04-26T06:13:57;98644.38;;;7.25;75.04
58662;BME280;44432;49.786;22.760;2023-04-26T06:16:26;98652.94;;;7.31;74.88
58662;BME280;44432;49.786;22.760;2023-04-26T06:18:55;98651.41;;;7.38;74.99
58662;BME280;44432;49.786;22.760;2023-04-26T06:21:25;98659.66;;;7.49;73.97
58662;BME280;44432;49.786;22.760;2023-04-26T06:23:54;98659.55;;;7.59;73.71
58662;BME280;44432;49.786;22.760;2023-04-26T06:26:23;98658.98;;;7.68;72.67
58662;BME280;44432;49.786;22.760;2023-04-26T06:28:52;98662.17;;;7.78;72.66
58662;BME280;44432;49.786;22.760;2023-04-26T06:31:21;98657.73;;;7.85;72.15
58662;BME280;44432;49.786;22.760;2023-04-26T06:33:50;98659.71;;;7.94;72.31
58662;BME280;44432;49.786;22.760;2023-04-26T06:36:20;98664.44;;;8.02;71.54
58662;BME280;44432;49.786;22.760;2023-04-26T06:38:49;98663.79;;;8.05;70.83
58662;BME280;44432;49.786;22.760;2023-04-26T06:41:18;98664.20;;;8.08;71.26
58662;BME280;44432;49.786;22.760;2023-04-26T06:43:48;98674.98;;;8.19;71.09
58662;BME280;44432;49.786;22.760;2023-04-26T06:46:17;98677.61;;;8.27;70.64
58662;BME280;44432;49.786;22.760;2023-04-26T06:48:46;98677.44;;;8.27;69.93
58662;BME280;44432;49.786;22.760;2023-04-26T06:51:16;98679.09;;;8.28;70.20
58662;BME280;44432;49.786;22.760;2023-04-26T06:53:45;98686.50;;;8.33;70.40
58662;BME280;44432;49.786;22.760;2023-04-26T06:56:14;98692.06;;;8.38;70.06
58662;BME280;44432;49.786;22.760;2023-04-26T06:58:47;98690.53;;;8.36;69.40
58662;BME280;44432;49.786;22.760;2023-04-26T07:01:26;98700.88;;;8.26;68.24
58662;BME280;44432;49.786;22.760;2023-04-26T07:03:55;98700.69;;;8.17;67.79
58662;BME280;44432;49.786;22.760;2023-04-26T07:06:24;98705.05;;;8.10;67.59
58662;BME280;44432;49.786;22.760;2023-04-26T07:08:54;98706.98;;;8.09;67.27
58662;BME280;44432;49.786;22.760;2023-04-26T07:11:23;98700.65;;;7.99;66.73
58662;BME280;44432;49.786;22.760;2023-04-26T07:13:52;98712.33;;;8.01;67.05
58662;BME280;44432;49.786;22.760;2023-04-26T07:16:22;98713.07;;;7.98;66.14
58662;BME280;44432;49.786;22.760;2023-04-26T07:18:51;98705.51;;;7.88;66.55
58662;BME280;44432;49.786;22.760;2023-04-26T07:21:20;98715.88;;;7.85;66.71
58662;BME280;44432;49.786;22.760;2023-04-26T07:23:51;98718.80;;;7.81;67.03
58662;BME280;44432;49.786;22.760;2023-04-26T07:26:21;98721.54;;;7.83;67.26
58662;BME280;44432;49.786;22.760;2023-04-26T07:28:50;98722.84;;;7.92;67.59
58662;BME280;44432;49.786;22.760;2023-04-26T07:31:19;98728.52;;;7.98;65.02
58662;BME280;44432;49.786;22.760;2023-04-26T07:33:48;98722.70;;;7.98;65.44
58662;BME280;44432;49.786;22.760;2023-04-26T07:36:17;98734.84;;;8.05;64.06
58662;BME280;44432;49.786;22.760;2023-04-26T07:38:46;98734.21;;;8.09;63.56
58662;BME280;44432;49.786;22.760;2023-04-26T07:41:15;98734.70;;;8.18;64.16
58662;BME280;44432;49.786;22.760;2023-04-26T07:43:45;98738.59;;;8.29;63.14
58662;BME280;44432;49.786;22.760;2023-04-26T07:46:14;98735.74;;;8.41;63.68
58662;BME280;44432;49.786;22.760;2023-04-26T07:48:43;98738.04;;;8.57;63.50
58662;BME280;44432;49.786;22.760;2023-04-26T07:51:12;98732.45;;;8.70;62.72
58662;BME280;44432;49.786;22.760;2023-04-26T07:53:41;98733.97;;;8.82;62.83
58662;BME280;44432;49.786;22.760;2023-04-26T07:56:11;98738.95;;;8.92;60.17
58662;BME280;44432;49.786;22.760;2023-04-26T07:58:40;98734.83;;;8.93;60.93
58662;BME280;44432;49.786;22.760;2023-04-26T08:01:09;98732.29;;;9.01;61.11
58662;BME280;44432;49.786;22.760;2023-04-26T08:03:39;98736.61;;;9.11;60.92
58662;BME280;44432;49.786;22.760;2023-04-26T08:06:08;98745.00;;;9.16;58.92
58662;BME280;44432;49.786;22.760;2023-04-26T08:08:38;98747.19;;;9.16;58.91
58662;BME280;44432;49.786;22.760;2023-04-26T08:11:11;98745.55;;;9.22;59.01
58662;BME280;44432;49.786;22.760;2023-04-26T08:13:40;98745.27;;;9.32;58.32
58662;BME280;44432;49.786;22.760;2023-04-26T08:16:10;98743.31;;;9.38;58.68
58662;BME280;44432;49.786;22.760;2023-04-26T08:18:39;98744.23;;;9.47;58.30
58662;BME280;44432;49.786;22.760;2023-04-26T08:21:08;98744.73;;;9.54;58.06
58662;BME280;44432;49.786;22.760;2023-04-26T08:23:38;98751.75;;;9.58;57.71
58662;BME280;44432;49.786;22.760;2023-04-26T08:26:07;98751.33;;;9.55;56.99
58662;BME280;44432;49.786;22.760;2023-04-26T08:28:36;98751.30;;;9.53;57.12
58662;BME280;44432;49.786;22.760;2023-04-26T08:31:05;98753.79;;;9.51;57.08
58662;BME280;44432;49.786;22.760;2023-04-26T08:33:34;98765.16;;;9.55;56.80
58662;BME280;44432;49.786;22.760;2023-04-26T08:36:04;98753.29;;;9.54;56.80
58662;BME280;44432;49.786;22.760;2023-04-26T08:38:33;98761.19;;;9.58;56.87
58662;BME280;44432;49.786;22.760;2023-04-26T08:41:02;98762.86;;;9.57;56.51
58662;BME280;44432;49.786;22.760;2023-04-26T08:43:33;98758.45;;;9.56;56.70
58662;BME280;44432;49.786;22.760;2023-04-26T08:46:03;98763.05;;;9.54;56.11
58662;BME280;44432;49.786;22.760;2023-04-26T08:48:35;98767.89;;;9.58;56.51
58662;BME280;44432;49.786;22.760;2023-04-26T08:51:05;98769.48;;;9.60;55.33
58662;BME280;44432;49.786;22.760;2023-04-26T08:53:35;98759.59;;;9.52;54.81
58662;BME280;44432;49.786;22.760;2023-04-26T08:56:05;98762.48;;;9.54;55.54
58662;BME280;44432;49.786;22.760;2023-04-26T08:58:35;98759.18;;;9.56;55.52
58662;BME280;44432;49.786;22.760;2023-04-26T09:01:05;98755.48;;;9.57;55.94
58662;BME280;44432;49.786;22.760;2023-04-26T09:03:35;98760.41;;;9.67;56.04
58662;BME280;44432;49.786;22.760;2023-04-26T09:06:04;98760.99;;;9.69;55.52
58662;BME280;44432;49.786;22.760;2023-04-26T09:08:33;98757.20;;;9.76;56.40
58662;BME280;44432;49.786;22.760;2023-04-26T09:11:04;98761.76;;;9.95;56.24
58662;BME280;44432;49.786;22.760;2023-04-26T09:13:34;98762.46;;;10.11;56.02
58662;BME280;44432;49.786;22.760;2023-04-26T09:16:03;98768.56;;;10.25;55.14
58662;BME280;44432;49.786;22.760;2023-04-26T09:18:32;98769.98;;;10.30;54.22
58662;BME280;44432;49.786;22.760;2023-04-26T09:21:02;98780.21;;;10.28;53.98
58662;BME280;44432;49.786;22.760;2023-04-26T09:23:31;98789.88;;;10.29;52.43
58662;BME280;44432;49.786;22.760;2023-04-26T09:26:17;98783.58;;;10.22;51.57
58662;BME280;44432;49.786;22.760;2023-04-26T09:28:46;98785.55;;;10.30;53.68
58662;BME280;44432;49.786;22.760;2023-04-26T09:34:03;98790.66;;;10.73;53.03
58662;BME280;44432;49.786;22.760;2023-04-26T09:36:32;98789.86;;;10.87;53.02
58662;BME280;44432;49.786;22.760;2023-04-26T09:39:01;98786.12;;;11.00;52.64
58662;BME280;44432;49.786;22.760;2023-04-26T09:41:42;98792.67;;;11.15;52.42
58662;BME280;44432;49.786;22.760;2023-04-26T09:44:21;98789.17;;;11.31;51.23
58662;BME280;44432;49.786;22.760;2023-04-26T09:46:57;98786.23;;;11.38;51.60
58662;BME280;44432;49.786;22.760;2023-04-26T09:49:27;98784.95;;;11.57;51.49
58662;BME280;44432;49.786;22.760;2023-04-26T09:52:00;98784.53;;;11.53;48.57
58662;BME280;44432;49.786;22.760;2023-04-26T09:54:39;98789.70;;;11.23;47.91
58662;BME280;44432;49.786;22.760;2023-04-26T09:57:09;98795.23;;;10.95;48.97
58662;BME280;44432;49.786;22.760;2023-04-26T09:59:42;98802.91;;;10.63;47.09
58662;BME280;44432;49.786;22.760;2023-04-26T10:02:16;98799.54;;;10.29;47.48
58662;BME280;44432;49.786;22.760;2023-04-26T10:04:47;98792.34;;;10.13;49.62
58662;BME280;44432;49.786;22.760;2023-04-26T10:07:17;98791.09;;;10.25;50.43
58662;BME280;44432;49.786;22.760;2023-04-26T10:09:46;98802.68;;;10.42;51.04
58662;BME280;44432;49.786;22.760;2023-04-26T10:12:16;98806.23;;;10.55;50.57
58662;BME280;44432;49.786;22.760;2023-04-26T10:14:46;98801.98;;;10.57;50.24
58662;BME280;44432;49.786;22.760;2023-04-26T10:17:16;98802.91;;;10.60;49.65
58662;BME280;44432;49.786;22.760;2023-04-26T10:19:47;98797.28;;;10.56;49.73
58662;BME280;44432;49.786;22.760;2023-04-26T10:22:20;98795.27;;;10.61;50.39
58662;BME280;44432;49.786;22.760;2023-04-26T10:24:50;98797.26;;;10.73;50.20
58662;BME280;44432;49.786;22.760;2023-04-26T10:30:06;98798.15;;;10.81;50.22
58662;BME280;44432;49.786;22.760;2023-04-26T10:35:23;98809.98;;;10.40;49.33
58662;BME280;44432;49.786;22.760;2023-04-26T10:38:08;98804.71;;;10.18;49.09
58662;BME280;44432;49.786;22.760;2023-04-26T10:40:39;98802.39;;;9.96;48.88
58662;BME280;44432;49.786;22.760;2023-04-26T10:43:29;98801.38;;;9.85;49.49
58662;BME280;44432;49.786;22.760;2023-04-26T10:45:59;98799.42;;;9.74;49.51
58662;BME280;44432;49.786;22.760;2023-04-26T10:48:48;98800.80;;;9.71;49.90
58662;BME280;44432;49.786;22.760;2023-04-26T10:51:18;98802.78;;;9.75;50.21
58662;BME280;44432;49.786;22.760;2023-04-26T10:53:59;98805.86;;;9.83;50.64
58662;BME280;44432;49.786;22.760;2023-04-26T10:59:19;98807.67;;;10.03;49.91
58662;BME280;44432;49.786;22.760;2023-04-26T11:01:48;98809.67;;;10.05;49.15
58662;BME280;44432;49.786;22.760;2023-04-26T11:04:20;98812.20;;;9.98;48.26
58662;BME280;44432;49.786;22.760;2023-04-26T11:06:49;98810.27;;;9.88;48.81
58662;BME280;44432;49.786;22.760;2023-04-26T11:09:34;98819.10;;;9.81;48.75
58662;BME280;44432;49.786;22.760;2023-04-26T11:12:04;98823.70;;;9.73;49.14
58662;BME280;44432;49.786;22.760;2023-04-26T11:14:33;98822.13;;;9.67;49.55
58662;BME280;44432;49.786;22.760;2023-04-26T11:17:03;98832.60;;;9.57;49.42
58662;BME280;44432;49.786;22.760;2023-04-26T11:19:33;98833.55;;;9.45;49.27
58662;BME280;44432;49.786;22.760;2023-04-26T11:22:02;98838.87;;;9.32;49.06
58662;BME280;44432;49.786;22.760;2023-04-26T11:24:34;98842.91;;;9.18;48.80
58662;BME280;44432;49.786;22.760;2023-04-26T11:27:08;98839.38;;;9.13;49.87
58662;BME280;44432;49.786;22.760;2023-04-26T11:29:37;98840.15;;;9.20;50.39
58662;BME280;44432;49.786;22.760;2023-04-26T11:32:06;98838.52;;;9.31;50.56
58662;BME280;44432;49.786;22.760;2023-04-26T11:34:36;98840.80;;;9.36;50.05
58662;BME280;44432;49.786;22.760;2023-04-26T11:37:06;98842.41;;;9.42;50.21
58662;BME280;44432;49.786;22.760;2023-04-26T11:39:35;98841.16;;;9.57;50.33
58662;BME280;44432;49.786;22.760;2023-04-26T11:42:05;98846.43;;;9.73;49.81
58662;BME280;44432;49.786;22.760;2023-04-26T11:44:34;98844.11;;;9.79;49.44
58662;BME280;44432;49.786;22.760;2023-04-26T11:47:04;98844.73;;;9.83;49.30
58662;BME280;44432;49.786;22.760;2023-04-26T11:49:35;98842.87;;;9.94;49.43
58662;BME280;44432;49.786;22.760;2023-04-26T11:52:04;98840.88;;;10.10;49.54
58662;BME280;44432;49.786;22.760;2023-04-26T11:54:34;98839.16;;;10.28;49.45
58662;BME280;44432;49.786;22.760;2023-04-26T11:57:13;98838.52;;;10.44;49.32
58662;BME280;44432;49.786;22.760;2023-04-26T11:59:42;98845.27;;;10.57;49.06
58662;BME280;44432;49.786;22.760;2023-04-26T12:02:11;98847.05;;;10.63;47.84
58662;BME280;44432;49.786;22.760;2023-04-26T12:04:40;98850.78;;;10.61;47.67
58662;BME280;44432;49.786;22.760;2023-04-26T12:07:11;98855.94;;;10.54;46.32
58662;BME280;44432;49.786;22.760;2023-04-26T12:09:40;98852.67;;;10.46;45.92
58662;BME280;44432;49.786;22.760;2023-04-26T12:12:09;98850.44;;;10.46;45.93
58662;BME280;44432;49.786;22.760;2023-04-26T12:14:39;98841.57;;;10.42;45.52
58662;BME280;44432;49.786;22.760;2023-04-26T12:17:08;98855.72;;;10.46;46.19
58662;BME280;44432;49.786;22.760;2023-04-26T12:19:39;98848.36;;;10.51;46.08
58662;BME280;44432;49.786;22.760;2023-04-26T12:22:08;98847.34;;;10.54;45.92
58662;BME280;44432;49.786;22.760;2023-04-26T12:24:37;98846.52;;;10.55;45.89
58662;BME280;44432;49.786;22.760;2023-04-26T12:27:18;98849.71;;;10.71;47.05
58662;BME280;44432;49.786;22.760;2023-04-26T12:29:48;98852.55;;;11.01;46.39
58662;BME280;44432;49.786;22.760;2023-04-26T12:32:17;98857.45;;;11.19;44.33
58662;BME280;44432;49.786;22.760;2023-04-26T12:34:46;98858.73;;;11.18;43.44
58662;BME280;44432;49.786;22.760;2023-04-26T12:37:15;98855.78;;;11.25;44.20
58662;BME280;44432;49.786;22.760;2023-04-26T12:39:44;98849.16;;;11.37;44.54
58662;BME280;44432;49.786;22.760;2023-04-26T12:42:13;98851.95;;;11.46;44.77
58662;BME280;44432;49.786;22.760;2023-04-26T12:44:43;98851.23;;;11.55;44.54
58662;BME280;44432;49.786;22.760;2023-04-26T12:47:13;98857.11;;;11.52;44.24
58662;BME280;44432;49.786;22.760;2023-04-26T12:49:42;98860.33;;;11.37;43.04
58662;BME280;44432;49.786;22.760;2023-04-26T12:52:11;98865.06;;;11.07;43.03
58662;BME280;44432;49.786;22.760;2023-04-26T12:54:40;98868.51;;;10.73;43.25
58662;BME280;44432;49.786;22.760;2023-04-26T12:57:09;98866.20;;;10.49;44.17
58662;BME280;44432;49.786;22.760;2023-04-26T12:59:38;98864.63;;;10.39;44.51
58662;BME280;44432;49.786;22.760;2023-04-26T13:02:07;98867.19;;;10.32;45.03
58662;BME280;44432;49.786;22.760;2023-04-26T13:04:37;98867.43;;;10.33;45.31
58662;BME280;44432;49.786;22.760;2023-04-26T13:07:06;98864.52;;;10.37;45.75
58662;BME280;44432;49.786;22.760;2023-04-26T13:09:35;98862.86;;;10.46;45.62
58662;BME280;44432;49.786;22.760;2023-04-26T13:12:05;98863.34;;;10.56;45.32
58662;BME280;44432;49.786;22.760;2023-04-26T13:14:34;98863.75;;;10.73;45.11
58662;BME280;44432;49.786;22.760;2023-04-26T13:17:05;98862.25;;;10.96;45.52
58662;BME280;44432;49.786;22.760;2023-04-26T13:19:35;98869.16;;;11.32;44.67
58662;BME280;44432;49.786;22.760;2023-04-26T13:22:04;98864.14;;;11.57;43.31